Terminal Aerodrome Forecast
Issued by NWS

Home | Current Version | Previous Version | Text Only | Print | Product List | Glossary On
Versions: 1 2 3 4 5 6 7 8 9 10 11 12 13 14 15
312
FTUS41 KGYX 271732
TAFAUG
TAF
KAUG 271732Z 2718/2818 VRB06KT P6SM FEW110
      TEMPO 2723/2803 2SM -TSRA BKN030CB
     FM280800 28004KT 4SM BR VV002
     FM281200 31003KT P6SM OVC003
     FM281300 32004KT P6SM BKN250=

USA.gov is the U.S. government's official web portal to all federal, state and local government web resources and services.